| time (UTC) | temp C | wind direction | speed KPH | gust KPH | rain 1hr cm | rain 24hr cm | rain mn cm | humidity % | barometer mb |
| 20260507000901 | 12 | 183 | 4.8 | 17.7 | 0.00 | 0.58 | 0.58 | 93 | 1006.2 |
| 20260507000007 | 12 | 289 | 9.7 | 17.7 | 0.00 | 0.58 | 0.58 | 93 | 1006.5 |
| 20260507000002 | 12 | 172 | 4.8 | 17.7 | 0.00 | 0.58 | 0.58 | 93 | 1006.3 |
| 20260506235422 | 12 | 173 | 3.2 | 16.1 | 0.00 | 0.58 | 0.58 | 93 | 1006.3 |
| 20260506234507 | 12 | 304 | 3.2 | 19.3 | 0.03 | 0.58 | 0.58 | 93 | 1006.5 |
| 20260506234502 | 12 | 190 | 4.8 | 19.3 | 0.03 | 0.58 | 0.58 | 93 | 1006.2 |
| 20260506233623 | 12 | 180 | 4.8 | 17.7 | 0.05 | 0.58 | 0.58 | 93 | 1006.1 |
| 20260506233003 | 12 | 85 | 3.2 | 17.7 | 0.05 | 0.58 | 0.58 | 94 | 1006.4 |
| 20260506232722 | 12 | 177 | 6.4 | 24.1 | 0.08 | 0.58 | 0.58 | 94 | 1006.0 |
| 20260506231802 | 12 | 200 | 8.0 | 25.7 | 0.13 | 0.58 | 0.58 | 94 | 1006.1 |
| 20260506231601 | 12 | 153 | 9.7 | 27.4 | 0.13 | 0.58 | 0.58 | 94 | 1006.4 |
| 20260506230902 | 12 | 175 | 3.2 | 16.1 | 0.15 | 0.58 | 0.58 | 94 | 1006.1 |
| 20260506230008 | 12 | 256 | 4.8 | 16.1 | 0.23 | 0.58 | 0.58 | 94 | 1006.3 |
| 20260506230002 | 12 | 173 | 4.8 | 17.7 | 0.23 | 0.58 | 0.58 | 94 | 1006.1 |
| 20260506225401 | 12 | 169 | 4.8 | 16.1 | 0.23 | 0.58 | 0.58 | 94 | 1006.0 |
| 20260506224506 | 12 | 15 | 4.8 | 22.5 | 0.28 | 0.56 | 0.56 | 94 | 1006.3 |
| 20260506224502 | 12 | 176 | 4.8 | 22.5 | 0.28 | 0.56 | 0.56 | 94 | 1006.0 |
| 20260506223602 | 12 | 181 | 4.8 | 22.5 | 0.28 | 0.53 | 0.53 | 94 | 1006.0 |
| 20260506223008 | 12 | 143 | 3.2 | 17.7 | 0.30 | 0.53 | 0.53 | 93 | 1006.2 |
| 20260506222702 | 12 | 176 | 4.8 | 16.1 | 0.28 | 0.51 | 0.51 | 93 | 1006.1 |
| 20260506221802 | 12 | 184 | 6.4 | 29.0 | 0.25 | 0.46 | 0.46 | 92 | 1006.2 |
| 20260506221506 | 12 | 146 | 6.4 | 27.4 | 0.25 | 0.46 | 0.46 | 92 | 1006.5 |
| 20260506220902 | 12 | 177 | 4.8 | 12.9 | 0.23 | 0.43 | 0.43 | 92 | 1006.2 |
| 20260506220005 | 12 | 135 | 6.4 | 19.3 | 0.18 | 0.36 | 0.36 | 92 | 1006.6 |
| 20260506220002 | 12 | 174 | 6.4 | 20.9 | 0.18 | 0.36 | 0.36 | 92 | 1006.3 |
| 20260506215402 | 12 | 172 | 6.4 | 20.9 | 0.18 | 0.36 | 0.36 | 92 | 1006.5 |
| 20260506214507 | 12 | 154 | 4.8 | 14.5 | 0.10 | 0.28 | 0.28 | 92 | 1007.0 |
| 20260506214502 | 12 | 168 | 4.8 | 16.1 | 0.13 | 0.28 | 0.28 | 92 | 1006.6 |
| 20260506213623 | 12 | 180 | 4.8 | 19.3 | 0.10 | 0.25 | 0.25 | 92 | 1006.6 |
| 20260506213011 | 12 | 188 | 3.2 | 16.1 | 0.10 | 0.23 | 0.23 | 91 | 1006.8 |
| 20260506212702 | 12 | 170 | 3.2 | 17.7 | 0.10 | 0.23 | 0.23 | 91 | 1006.7 |
| 20260506211802 | 12 | 164 | 3.2 | 17.7 | 0.10 | 0.20 | 0.20 | 92 | 1006.7 |
| 20260506211603 | 12 | 187 | 1.6 | 17.7 | 0.10 | 0.20 | 0.20 | 92 | 1006.9 |
| 20260506210902 | 12 | 173 | 4.8 | 17.7 | 0.10 | 0.20 | 0.20 | 92 | 1006.8 |
| 20260506210008 | 12 | 124 | 3.2 | 9.7 | 0.08 | 0.18 | 0.18 | 92 | 1007.1 |
| 20260506210002 | 12 | 163 | 3.2 | 8.0 | 0.08 | 0.18 | 0.18 | 92 | 1006.9 |
| 20260506205423 | 12 | 155 | 3.2 | 12.9 | 0.08 | 0.18 | 0.18 | 91 | 1006.8 |
| 20260506204523 | 12 | 155 | 3.2 | 12.9 | 0.08 | 0.15 | 0.15 | 91 | 1006.9 |
| 20260506204504 | 12 | 75 | 3.2 | 11.3 | 0.08 | 0.15 | 0.15 | 91 | 1007.2 |
| 20260506203602 | 12 | 156 | 3.2 | 22.5 | 0.08 | 0.15 | 0.15 | 90 | 1007.1 |
| 20260506203009 | 12 | 324 | 3.2 | 22.5 | 0.08 | 0.13 | 0.13 | 90 | 1007.4 |
| 20260506202702 | 12 | 166 | 6.4 | 22.5 | 0.10 | 0.13 | 0.13 | 89 | 1007.1 |
| 20260506201802 | 13 | 184 | 6.4 | 16.1 | 0.10 | 0.10 | 0.10 | 88 | 1007.2 |
| 20260506201510 | 12 | 251 | 6.4 | 16.1 | 0.10 | 0.10 | 0.10 | 88 | 1007.5 |
| 20260506200902 | 13 | 165 | 4.8 | 16.1 | 0.10 | 0.10 | 0.10 | 88 | 1007.3 |
| 20260506200009 | 13 | 147 | 1.6 | 16.1 | 0.10 | 0.10 | 0.10 | 88 | 1007.7 |
| 20260506200002 | 13 | 186 | 4.8 | 16.1 | 0.10 | 0.10 | 0.10 | 88 | 1007.4 |
| 20260506195402 | 13 | 184 | 4.8 | 19.3 | 0.10 | 0.10 | 0.10 | 88 | 1007.4 |
| 20260506194506 | 13 | 214 | 3.2 | 19.3 | 0.08 | 0.08 | 0.08 | 89 | 1007.8 |
| 20260506194502 | 13 | 162 | 4.8 | 25.7 | 0.08 | 0.08 | 0.08 | 89 | 1007.5 |
| 20260506193602 | 13 | 177 | 6.4 | 25.7 | 0.08 | 0.08 | 0.08 | 87 | 1007.6 |
| 20260506193013 | 13 | 218 | 3.2 | 24.1 | 0.05 | 0.05 | 0.05 | 86 | 1007.9 |
| 20260506192723 | 14 | 163 | 8.0 | 27.4 | 0.03 | 0.03 | 0.03 | 85 | 1007.7 |
| 20260506191802 | 15 | 171 | 6.4 | 22.5 | 0.00 | 0.00 | 0.00 | 82 | 1007.8 |
| 20260506191510 | 15 | 167 | 4.8 | 16.1 | 0.00 | 0.00 | 0.00 | 82 | 1008.1 |
| 20260506190902 | 15 | 191 | 6.4 | 25.7 | 0.00 | 0.00 | 0.00 | 80 | 1008.0 |
| 20260506190023 | 15 | 162 | 6.4 | 22.5 | 0.00 | 0.00 | 0.00 | 79 | 1007.9 |
| 20260506190002 | 15 | 115 | 4.8 | 17.7 | 0.00 | 0.00 | 0.00 | 79 | 1008.3 |
| 20260506185402 | 15 | 177 | 8.0 | 27.4 | 0.00 | 0.00 | 0.00 | 79 | 1007.9 |
| 20260506184510 | 15 | 211 | 6.4 | 32.2 | 0.00 | 0.00 | 0.00 | 79 | 1008.3 |
| 20260506184502 | 15 | 167 | 6.4 | 32.2 | 0.00 | 0.00 | 0.00 | 79 | 1008.1 |
| 20260506183623 | 15 | 184 | 8.0 | 32.2 | 0.00 | 0.00 | 0.00 | 79 | 1008.1 |
| 20260506183008 | 15 | 213 | 6.4 | 16.1 | 0.00 | 0.00 | 0.00 | 78 | 1008.4 |
| 20260506182702 | 15 | 175 | 8.0 | 24.1 | 0.00 | 0.00 | 0.00 | 78 | 1008.0 |
| 20260506181803 | 16 | 184 | 6.4 | 24.1 | 0.00 | 0.00 | 0.00 | 77 | 1008.2 |
| 20260506181502 | 15 | 162 | 4.8 | 17.7 | 0.00 | 0.00 | 0.00 | 78 | 1008.7 |
| 20260506180902 | 16 | 167 | 8.0 | 27.4 | 0.00 | 0.00 | 0.00 | 78 | 1008.5 |
| 20260506180010 | 15 | 240 | 11.3 | 29.0 | 0.00 | 0.00 | 0.00 | 78 | 1008.7 |
| 20260506180003 | 15 | 175 | 9.7 | 33.8 | 0.00 | 0.00 | 0.00 | 78 | 1008.4 |
| 20260506175403 | 15 | 178 | 9.7 | 33.8 | 0.00 | 0.00 | 0.00 | 78 | 1008.6 |
| 20260506174506 | 15 | 183 | 12.9 | 29.0 | 0.00 | 0.00 | 0.00 | 77 | 1009.0 |
| 20260506174503 | 16 | 173 | 11.3 | 29.0 | 0.00 | 0.00 | 0.00 | 77 | 1008.9 |
| 20260506173603 | 16 | 173 | 8.0 | 25.7 | 0.00 | 0.00 | 0.00 | 77 | 1008.9 |
| 20260506173004 | 16 | 194 | 11.3 | 19.3 | 0.00 | 0.00 | 0.00 | 76 | 1009.6 |
| 20260506172703 | 16 | 191 | 8.0 | 25.7 | 0.00 | 0.00 | 0.00 | 76 | 1009.3 |
| 20260506171803 | 16 | 174 | 6.4 | 27.4 | 0.00 | 0.00 | 0.00 | 75 | 1009.3 |
| 20260506171602 | 16 | 205 | 4.8 | 27.4 | 0.00 | 0.00 | 0.00 | 75 | 1009.5 |
| 20260506170902 | 17 | 166 | 8.0 | 27.4 | 0.00 | 0.00 | 0.00 | 75 | 1009.1 |
| 20260506170007 | 17 | 104 | 8.0 | 30.6 | 0.00 | 0.00 | 0.00 | 74 | 1009.4 |
| 20260506170003 | 17 | 165 | 9.7 | 33.8 | 0.00 | 0.00 | 0.00 | 74 | 1009.3 |
| 20260506165403 | 17 | 189 | 9.7 | 33.8 | 0.00 | 0.00 | 0.00 | 75 | 1009.2 |
| 20260506164524 | 17 | 185 | 9.7 | 27.4 | 0.00 | 0.00 | 0.00 | 75 | 1009.5 |
| 20260506164507 | 16 | 119 | 8.0 | 29.0 | 0.00 | 0.00 | 0.00 | 75 | 1009.7 |
| 20260506163603 | 16 | 174 | 6.4 | 29.0 | 0.00 | 0.00 | 0.00 | 76 | 1009.6 |
| 20260506163005 | 16 | 27 | 1.6 | 25.7 | 0.00 | 0.00 | 0.00 | 78 | 1009.9 |
| 20260506162703 | 16 | 167 | 6.4 | 25.7 | 0.00 | 0.00 | 0.00 | 77 | 1009.6 |
| 20260506161803 | 16 | 168 | 8.0 | 33.8 | 0.00 | 0.00 | 0.00 | 77 | 1009.8 |
| 20260506161510 | 16 | 51 | 6.4 | 30.6 | 0.00 | 0.00 | 0.00 | 77 | 1010.0 |
| 20260506160924 | 16 | 173 | 6.4 | 25.7 | 0.00 | 0.00 | 0.00 | 77 | 1010.0 |
| 20260506160012 | 16 | 223 | 3.2 | 32.2 | 0.00 | 0.00 | 0.00 | 76 | 1010.3 |
| 20260506160003 | 16 | 177 | 8.0 | 32.2 | 0.00 | 0.00 | 0.00 | 76 | 1010.0 |
| 20260506155403 | 17 | 175 | 8.0 | 32.2 | 0.00 | 0.00 | 0.00 | 74 | 1010.2 |
| 20260506154607 | 17 | 200 | 9.7 | 33.8 | 0.00 | 0.00 | 0.00 | 74 | 1010.4 |
| 20260506154503 | 17 | 191 | 9.7 | 33.8 | 0.00 | 0.00 | 0.00 | 74 | 1010.1 |
| 20260506153621 | 17 | 175 | 8.0 | 29.0 | 0.00 | 0.00 | 0.00 | 73 | 1010.2 |
| 20260506153100 | 17 | 94 | 8.0 | 20.9 | 0.00 | 0.00 | 0.00 | 73 | 1010.4 |
| 20260506152700 | 17 | 184 | 8.0 | 20.9 | 0.00 | 0.00 | 0.00 | 73 | 1010.1 |
| 20260506151821 | 17 | 170 | 8.0 | 30.6 | 0.00 | 0.00 | 0.00 | 75 | 1010.2 |
| 20260506151505 | 17 | 132 | 4.8 | 30.6 | 0.00 | 0.00 | 0.00 | 76 | 1010.5 |
| 20260506150900 | 17 | 187 | 9.7 | 30.6 | 0.00 | 0.00 | 0.00 | 75 | 1010.2 |
| 20260506150000 | 17 | 185 | 9.7 | 30.6 | 0.00 | 0.00 | 0.00 | 78 | 1010.5 |
| 20260506145400 | 16 | 171 | 9.7 | 30.6 | 0.00 | 0.00 | 0.00 | 75 | 1010.6 |
| 20260506144521 | 16 | 180 | 9.7 | 27.4 | 0.00 | 0.00 | 0.00 | 76 | 1010.3 |
| 20260506144508 | 16 | 255 | 8.0 | 24.1 | 0.00 | 0.00 | 0.00 | 76 | 1010.5 |
| 20260506143621 | 16 | 166 | 9.7 | 25.7 | 0.00 | 0.00 | 0.00 | 76 | 1010.3 |
| 20260506143007 | 16 | 136 | 6.4 | 33.8 | 0.00 | 0.00 | 0.00 | 79 | 1010.6 |
| 20260506142700 | 16 | 180 | 8.0 | 35.4 | 0.00 | 0.00 | 0.00 | 78 | 1010.5 |
| 20260506141800 | 16 | 196 | 8.0 | 29.0 | 0.00 | 0.00 | 0.00 | 78 | 1010.4 |
| 20260506141600 | 15 | 202 | 4.8 | 24.1 | 0.00 | 0.00 | 0.00 | 77 | 1010.6 |
| 20260506140900 | 16 | 184 | 8.0 | 29.0 | 0.00 | 0.00 | 0.00 | 77 | 1010.2 |
| 20260506140007 | 16 | 82 | 8.0 | 29.0 | 0.00 | 0.00 | 0.00 | 78 | 1010.3 |
| 20260506140000 | 16 | 185 | 8.0 | 29.0 | 0.00 | 0.00 | 0.00 | 78 | 1010.0 |
| 20260506135400 | 16 | 187 | 8.0 | 25.7 | 0.00 | 0.00 | 0.00 | 77 | 1010.1 |
| 20260506134521 | 16 | 190 | 6.4 | 25.7 | 0.00 | 0.00 | 0.00 | 77 | 1010.2 |
| 20260506134507 | 16 | 221 | 3.2 | 25.7 | 0.00 | 0.00 | 0.00 | 77 | 1010.4 |
| 20260506133600 | 16 | 161 | 6.4 | 25.7 | 0.00 | 0.00 | 0.00 | 78 | 1010.3 |
| 20260506133002 | 16 | 161 | 4.8 | 25.7 | 0.00 | 0.00 | 0.00 | 78 | 1010.7 |
| 20260506132721 | 16 | 182 | 6.4 | 27.4 | 0.00 | 0.00 | 0.00 | 79 | 1010.5 |
| 20260506131800 | 16 | 156 | 8.0 | 27.4 | 0.00 | 0.00 | 0.00 | 80 | 1010.6 |
| 20260506131502 | 15 | 138 | 8.0 | 24.1 | 0.00 | 0.00 | 0.00 | 80 | 1010.6 |
| 20260506130900 | 15 | 161 | 4.8 | 27.4 | 0.00 | 0.00 | 0.00 | 81 | 1010.5 |
| 20260506130106 | 15 | 200 | 4.8 | 27.4 | 0.00 | 0.00 | 0.00 | 80 | 1010.6 |
| 20260506130000 | 15 | 170 | 8.0 | 27.4 | 0.00 | 0.00 | 0.00 | 81 | 1010.5 |
| 20260506125400 | 15 | 181 | 8.0 | 27.4 | 0.00 | 0.00 | 0.00 | 81 | 1010.5 |
| 20260506124521 | 15 | 175 | 8.0 | 25.7 | 0.00 | 0.00 | 0.00 | 81 | 1010.5 |
| 20260506124505 | 15 | 196 | 6.4 | 24.1 | 0.00 | 0.00 | 0.00 | 81 | 1010.7 |
| 20260506123600 | 15 | 183 | 6.4 | 24.1 | 0.00 | 0.00 | 0.00 | 82 | 1010.3 |
| 20260506123002 | 15 | 188 | 4.8 | 24.1 | 0.00 | 0.00 | 0.00 | 82 | 1010.6 |
| 20260506122701 | 15 | 196 | 4.8 | 24.1 | 0.00 | 0.00 | 0.00 | 83 | 1010.3 |
| 20260506121800 | 14 | 188 | 3.2 | 17.7 | 0.00 | 0.00 | 0.00 | 84 | 1010.6 |
| 20260506121504 | 14 | 140 | 4.8 | 17.7 | 0.00 | 0.00 | 0.00 | 83 | 1010.8 |
| 20260506120901 | 14 | 179 | 8.0 | 27.4 | 0.00 | 0.00 | 0.00 | 83 | 1010.6 |
| 20260506120111 | 14 | 217 | 6.4 | 24.1 | 0.00 | 0.00 | 0.00 | 84 | 1010.8 |
| 20260506120022 | 14 | 179 | 8.0 | 24.1 | 0.00 | 0.00 | 0.00 | 84 | 1010.6 |
| 20260506115401 | 14 | 192 | 8.0 | 24.1 | 0.00 | 0.00 | 0.00 | 85 | 1010.5 |
| 20260506114508 | 13 | 181 | 4.8 | 17.7 | 0.00 | 0.00 | 0.00 | 86 | 1011.0 |
| 20260506114501 | 14 | 173 | 4.8 | 17.7 | 0.00 | 0.00 | 0.00 | 86 | 1010.7 |
| 20260506113601 | 13 | 181 | 8.0 | 20.9 | 0.00 | 0.00 | 0.00 | 86 | 1010.9 |
| 20260506113002 | 13 | 221 | 6.4 | 20.9 | 0.00 | 0.00 | 0.00 | 86 | 1011.1 |
| 20260506112701 | 13 | 176 | 8.0 | 20.9 | 0.00 | 0.00 | 0.00 | 87 | 1010.8 |
| 20260506111822 | 13 | 171 | 6.4 | 17.7 | 0.00 | 0.00 | 0.00 | 87 | 1010.9 |
| 20260506111506 | 13 | 189 | 8.0 | 19.3 | 0.00 | 0.00 | 0.00 | 87 | 1011.1 |
| 20260506110922 | 13 | 183 | 4.8 | 19.3 | 0.00 | 0.00 | 0.00 | 87 | 1010.9 |
| 20260506110022 | 13 | 194 | 4.8 | 19.3 | 0.00 | 0.00 | 0.00 | 87 | 1010.7 |
| 20260506110005 | 13 | 177 | 6.4 | 17.7 | 0.00 | 0.00 | 0.00 | 87 | 1011.0 |
| 20260506105401 | 13 | 211 | 4.8 | 27.4 | 0.00 | 0.00 | 0.00 | 87 | 1010.7 |
| 20260506104559 | 13 | 170 | 4.8 | 27.4 | 0.00 | 0.00 | 0.00 | 87 | 1010.8 |
| 20260506104501 | 13 | 166 | 6.4 | 24.1 | 0.00 | 0.00 | 0.00 | 87 | 1010.6 |
| 20260506103601 | 13 | 177 | 4.8 | 16.1 | 0.00 | 0.00 | 0.00 | 88 | 1010.6 |
| 20260506103006 | 13 | 85 | 4.8 | 16.1 | 0.00 | 0.00 | 0.00 | 88 | 1010.9 |
| 20260506102701 | 13 | 183 | 4.8 | 20.9 | 0.00 | 0.00 | 0.00 | 88 | 1010.5 |
| 20260506101822 | 13 | 158 | 4.8 | 20.9 | 0.00 | 0.00 | 0.00 | 88 | 1010.5 |
| 20260506101502 | 13 | 148 | 4.8 | 25.7 | 0.00 | 0.00 | 0.00 | 88 | 1010.9 |
| 20260506100901 | 13 | 161 | 6.4 | 27.4 | 0.00 | 0.00 | 0.00 | 88 | 1010.6 |
| 20260506100008 | 13 | 107 | 3.2 | 16.1 | 0.00 | 0.00 | 0.00 | 88 | 1010.7 |
| 20260506100001 | 13 | 172 | 4.8 | 22.5 | 0.00 | 0.00 | 0.00 | 88 | 1010.4 |
| 20260506095401 | 13 | 181 | 6.4 | 22.5 | 0.00 | 0.00 | 0.00 | 88 | 1010.4 |
| 20260506094505 | 12 | 167 | 3.2 | 17.7 | 0.00 | 0.00 | 0.00 | 89 | 1010.6 |
| 20260506094501 | 13 | 173 | 6.4 | 19.3 | 0.00 | 0.00 | 0.00 | 89 | 1010.3 |
| 20260506093601 | 13 | 177 | 4.8 | 20.9 | 0.00 | 0.00 | 0.00 | 89 | 1010.3 |
| 20260506093113 | 12 | 76 | 4.8 | 20.9 | 0.00 | 0.00 | 0.00 | 89 | 1010.7 |
| 20260506092701 | 13 | 180 | 4.8 | 16.1 | 0.00 | 0.00 | 0.00 | 89 | 1010.5 |
| 20260506091801 | 13 | 180 | 4.8 | 24.1 | 0.00 | 0.00 | 0.00 | 89 | 1010.5 |
| 20260506091508 | 12 | 300 | 3.2 | 24.1 | 0.00 | 0.00 | 0.00 | 89 | 1010.7 |
| 20260506090901 | 13 | 190 | 4.8 | 20.9 | 0.00 | 0.00 | 0.00 | 89 | 1010.5 |
| 20260506090004 | 12 | 186 | 4.8 | 20.9 | 0.00 | 0.00 | 0.00 | 89 | 1010.8 |
| 20260506090001 | 13 | 170 | 6.4 | 20.9 | 0.00 | 0.00 | 0.00 | 89 | 1010.5 |
| 20260506085401 | 13 | 167 | 4.8 | 22.5 | 0.00 | 0.00 | 0.00 | 89 | 1010.5 |
| 20260506084508 | 13 | 119 | 4.8 | 20.9 | 0.00 | 0.00 | 0.00 | 89 | 1010.9 |
| 20260506084501 | 13 | 179 | 6.4 | 25.7 | 0.00 | 0.00 | 0.00 | 89 | 1010.6 |
| 20260506083601 | 13 | 167 | 6.4 | 24.1 | 0.00 | 0.00 | 0.00 | 89 | 1010.7 |
| 20260506083101 | 13 | 193 | 3.2 | 24.1 | 0.00 | 0.00 | 0.00 | 89 | 1011.0 |
| 20260506082722 | 13 | 176 | 4.8 | 24.1 | 0.00 | 0.00 | 0.00 | 89 | 1010.8 |
| 20260506081801 | 13 | 177 | 4.8 | 19.3 | 0.00 | 0.00 | 0.00 | 88 | 1010.8 |
| 20260506081508 | 13 | 186 | 1.6 | 17.7 | 0.00 | 0.00 | 0.00 | 88 | 1011.1 |
| 20260506080922 | 13 | 179 | 6.4 | 22.5 | 0.00 | 0.00 | 0.00 | 88 | 1010.9 |
| 20260506073009 | 13 | 274 | 6.4 | 17.7 | 0.00 | 0.00 | 0.00 | 88 | 1011.1 |
| 20260506072701 | 13 | 160 | 6.4 | 16.1 | 0.00 | 0.00 | 0.00 | 88 | 1010.7 |
| 20260506071801 | 13 | 161 | 4.8 | 16.1 | 0.00 | 0.00 | 0.00 | 88 | 1010.7 |
| 20260506071507 | 13 | 165 | 1.6 | 16.1 | 0.00 | 0.00 | 0.00 | 87 | 1011.0 |
| 20260506070901 | 13 | 176 | 4.8 | 17.7 | 0.00 | 0.00 | 0.00 | 88 | 1010.6 |
| 20260506061801 | 13 | 169 | 6.4 | 25.7 | 0.00 | 0.00 | 0.00 | 87 | 1010.6 |
| 20260506061501 | 12 | 223 | 6.4 | 19.3 | 0.00 | 0.00 | 0.00 | 87 | 1011.0 |
| 20260506060902 | 13 | 174 | 3.2 | 20.9 | 0.00 | 0.00 | 0.00 | 86 | 1010.8 |
| 20260506050902 | 13 | 174 | 4.8 | 24.1 | 0.00 | 0.00 | 0.00 | 84 | 1011.0 |
| 20260506044523 | 13 | 180 | 4.8 | 19.3 | 0.00 | 0.00 | 0.00 | 84 | 1011.2 |
| 20260506044504 | 13 | 207 | 4.8 | 17.7 | 0.00 | 0.00 | 0.00 | 84 | 1011.5 |
| 20260506043602 | 13 | 164 | 6.4 | 20.9 | 0.00 | 0.00 | 0.00 | 84 | 1011.0 |
| 20260506043004 | 13 | 258 | 6.4 | 16.1 | 0.00 | 0.00 | 0.00 | 84 | 1011.4 |
| 20260506042702 | 13 | 183 | 6.4 | 19.3 | 0.00 | 0.00 | 0.00 | 84 | 1011.2 |
| 20260506041802 | 13 | 176 | 6.4 | 20.9 | 0.00 | 0.00 | 0.00 | 84 | 1011.1 |
| 20260506041610 | 13 | 122 | 6.4 | 19.3 | 0.00 | 0.00 | 0.00 | 84 | 1011.4 |
| 20260506040902 | 13 | 164 | 6.4 | 20.9 | 0.00 | 0.00 | 0.00 | 84 | 1011.1 |
| 20260506040023 | 13 | 162 | 6.4 | 17.7 | 0.00 | 0.00 | 0.00 | 84 | 1011.1 |
| 20260506040005 | 13 | 75 | 6.4 | 19.3 | 0.00 | 0.00 | 0.00 | 84 | 1011.3 |
| 20260506035402 | 13 | 166 | 4.8 | 24.1 | 0.00 | 0.00 | 0.00 | 84 | 1011.0 |
| 20260506034504 | 13 | 79 | 4.8 | 24.1 | 0.00 | 0.00 | 0.00 | 83 | 1011.2 |
| 20260506034502 | 13 | 183 | 6.4 | 25.7 | 0.00 | 0.00 | 0.00 | 83 | 1011.0 |
| 20260506033602 | 13 | 173 | 6.4 | 17.7 | 0.00 | 0.00 | 0.00 | 83 | 1011.0 |
| 20260506033002 | 13 | 201 | 6.4 | 17.7 | 0.00 | 0.00 | 0.00 | 83 | 1011.2 |
| 20260506032702 | 13 | 174 | 4.8 | 16.1 | 0.00 | 0.00 | 0.00 | 83 | 1010.9 |
| 20260506031802 | 13 | 181 | 8.0 | 24.1 | 0.00 | 0.00 | 0.00 | 82 | 1010.8 |
| 20260506031510 | 13 | 163 | 8.0 | 24.1 | 0.00 | 0.00 | 0.00 | 82 | 1011.1 |
| 20260506030902 | 13 | 173 | 4.8 | 19.3 | 0.00 | 0.00 | 0.00 | 82 | 1010.8 |
| 20260506030007 | 13 | 98 | 6.4 | 27.4 | 0.00 | 0.00 | 0.00 | 81 | 1011.1 |
| 20260506030002 | 13 | 160 | 4.8 | 30.6 | 0.00 | 0.00 | 0.00 | 81 | 1010.8 |
| 20260506025402 | 13 | 157 | 3.2 | 12.9 | 0.00 | 0.00 | 0.00 | 81 | 1010.8 |
| 20260506024504 | 13 | 261 | 1.6 | 19.3 | 0.00 | 0.00 | 0.00 | 80 | 1011.1 |
| 20260506024502 | 13 | 174 | 4.8 | 19.3 | 0.00 | 0.00 | 0.00 | 80 | 1010.8 |
| 20260506023623 | 13 | 192 | 4.8 | 19.3 | 0.00 | 0.00 | 0.00 | 80 | 1010.8 |
| 20260506023002 | 13 | 191 | 3.2 | 17.7 | 0.00 | 0.00 | 0.00 | 79 | 1011.0 |
| 20260506022723 | 13 | 175 | 6.4 | 19.3 | 0.00 | 0.00 | 0.00 | 79 | 1010.8 |
| 20260506021823 | 13 | 162 | 4.8 | 22.5 | 0.00 | 0.00 | 0.00 | 78 | 1010.9 |
| 20260506021508 | 13 | 163 | 3.2 | 19.3 | 0.00 | 0.00 | 0.00 | 78 | 1011.1 |
| 20260506020923 | 13 | 171 | 4.8 | 30.6 | 0.00 | 0.00 | 0.00 | 77 | 1010.7 |
| 20260506020003 | 13 | 76 | 4.8 | 30.6 | 0.00 | 0.00 | 0.00 | 77 | 1011.1 |
| 20260506015402 | 13 | 182 | 6.4 | 30.6 | 0.00 | 0.00 | 0.00 | 77 | 1010.8 |
| 20260506014602 | 13 | 136 | 8.0 | 24.1 | 0.00 | 0.00 | 0.00 | 76 | 1011.0 |
| 20260506014502 | 13 | 168 | 6.4 | 27.4 | 0.00 | 0.00 | 0.00 | 76 | 1010.6 |
| 20260506013602 | 13 | 188 | 6.4 | 27.4 | 0.00 | 0.00 | 0.00 | 76 | 1010.5 |
| 20260506013007 | 13 | 178 | 3.2 | 16.1 | 0.00 | 0.00 | 0.00 | 76 | 1010.8 |
| 20260506012702 | 13 | 174 | 4.8 | 14.5 | 0.00 | 0.00 | 0.00 | 75 | 1010.4 |
| 20260506011802 | 13 | 180 | 6.4 | 22.5 | 0.00 | 0.00 | 0.00 | 75 | 1010.4 |
| 20260506011506 | 13 | 310 | 3.2 | 19.3 | 0.00 | 0.00 | 0.00 | 75 | 1010.6 |
| 20260506010902 | 14 | 190 | 6.4 | 22.5 | 0.00 | 0.00 | 0.00 | 75 | 1010.4 |
| 20260506010009 | 13 | 265 | 3.2 | 22.5 | 0.00 | 0.00 | 0.00 | 76 | 1010.4 |
| 20260506010003 | 14 | 186 | 4.8 | 25.7 | 0.00 | 0.00 | 0.00 | 76 | 1010.1 |
| 20260506005402 | 13 | 185 | 4.8 | 25.7 | 0.00 | 0.00 | 0.00 | 76 | 1010.1 |
| 20260506004524 | 13 | 174 | 6.4 | 25.7 | 0.00 | 0.00 | 0.00 | 76 | 1010.0 |
| 20260506004519 | 13 | 165 | 3.2 | 25.7 | 0.00 | 0.00 | 0.00 | 76 | 1010.3 |
| 20260506003603 | 13 | 185 | 6.4 | 29.0 | 0.00 | 0.00 | 0.00 | 77 | 1009.9 |
| 20260506003005 | 13 | 199 | 8.0 | 20.9 | 0.00 | 0.00 | 0.00 | 77 | 1010.2 |
| 20260506002703 | 13 | 166 | 4.8 | 20.9 | 0.00 | 0.00 | 0.00 | 77 | 1009.8 |
| 20260506001803 | 13 | 197 | 4.8 | 17.7 | 0.00 | 0.00 | 0.00 | 77 | 1009.7 |
| 20260506001503 | 13 | 128 | 6.4 | 17.7 | 0.00 | 0.00 | 0.00 | 77 | 1009.9 |